MA40 weather

Diesel Dogs Seaplane Base
Gardner, Massachusetts, United States

Public forecast

Using degrees Fahrenheit for public forecast. Weather courtesy of forecast.io.

METAR (pilot weather report)

Closest report is Fitchburg Municipal Airport, 9.3 nm (17.2 km) E. Retrieved 2019/07/20 08:52 UTC (35 minutes ago):

KFIT 200852Z AUTO 31005KT 10SM CLR 27/21 A2977 RMK AO2 SLP080 T02670211 50000

TAF (pilot weather forecast)

Forecast is more than 12 hours old.

Closest forecast is Worcester Regional Airport, 17.1 nm (31.6 km) SSE. Retrieved 2019/07/19 00:33 UTC (1 day ago):

TAF KORH 192328Z 2000/2024 24010KT P6SM FEW060 FM200400 26009KT P6SM FEW060 FM200800 28009KT P6SM FEW060 FM201700 26009KT P6SM FEW045 FM202200 25008KT P6SM FEW040